createdAt,value
2017-12-21T00:00:03.724Z,20.57
2017-12-21T00:02:39.059Z,18.70
2017-12-21T00:05:13.210Z,25.77
2017-12-21T00:07:47.702Z,23.57
2017-12-21T00:10:22.306Z,21.63
2017-12-21T00:12:59.150Z,20.77
2017-12-21T00:15:33.612Z,25.80
2017-12-21T00:18:10.498Z,24.70
2017-12-21T00:20:44.145Z,25.50
2017-12-21T00:23:18.321Z,24.60
2017-12-21T00:25:52.383Z,24.10
2017-12-21T00:28:26.565Z,25.10
2017-12-21T00:31:00.786Z,23.93
2017-12-21T00:33:35.341Z,23.23
2017-12-21T00:36:10.008Z,25.17
2017-12-21T00:38:44.786Z,25.13
2017-12-21T00:41:19.172Z,26.20
2017-12-21T00:43:53.090Z,22.30
2017-12-21T00:46:27.026Z,27.03
2017-12-21T00:49:02.411Z,21.70
2017-12-21T00:51:36.526Z,26.60
2017-12-21T00:54:11.114Z,24.83
2017-12-21T00:56:45.420Z,21.00
2017-12-21T00:59:19.779Z,18.80
2017-12-21T01:01:53.941Z,16.30
2017-12-21T01:04:28.127Z,26.53
2017-12-21T01:07:02.312Z,22.00
2017-12-21T01:09:37.236Z,25.07
2017-12-21T01:12:11.730Z,20.63
2017-12-21T01:14:46.920Z,24.50
2017-12-21T01:17:22.161Z,25.27
2017-12-21T01:19:56.458Z,20.80
2017-12-21T01:22:30.601Z,20.60
2017-12-21T01:25:05.162Z,19.10
2017-12-21T01:27:40.132Z,22.30
2017-12-21T01:30:14.157Z,24.10
2017-12-21T01:32:49.011Z,23.80
2017-12-21T01:35:23.063Z,24.50
2017-12-21T01:37:57.148Z,24.40
2017-12-21T01:40:31.003Z,20.20
2017-12-21T01:43:05.526Z,18.63
2017-12-21T01:45:40.004Z,20.80
2017-12-21T01:48:14.364Z,19.90
2017-12-21T01:50:49.094Z,22.40
2017-12-21T01:53:22.968Z,21.03
2017-12-21T01:55:56.859Z,22.87
2017-12-21T01:58:30.847Z,19.30
2017-12-21T02:01:04.929Z,22.00
2017-12-21T02:03:39.556Z,23.20
2017-12-21T02:06:14.386Z,23.00
2017-12-21T02:08:49.089Z,24.13
2017-12-21T02:11:23.326Z,28.80
2017-12-21T02:13:57.176Z,22.33
2017-12-21T02:16:30.870Z,21.97
2017-12-21T02:19:05.667Z,24.90
2017-12-21T02:21:41.005Z,28.27
2017-12-21T02:24:15.256Z,25.97
2017-12-21T02:26:49.023Z,24.83
2017-12-21T02:29:24.715Z,24.90
2017-12-21T02:31:59.173Z,26.10
2017-12-21T02:34:33.456Z,21.87
2017-12-21T02:37:07.282Z,25.87
2017-12-21T02:39:41.196Z,23.20
2017-12-21T02:42:14.982Z,22.13
2017-12-21T02:44:49.334Z,59.03
2017-12-21T02:47:24.415Z,25.27
2017-12-21T02:49:58.996Z,23.60
2017-12-21T02:52:32.725Z,28.40
2017-12-21T02:55:07.463Z,33.23
2017-12-21T02:57:41.482Z,23.30
2017-12-21T03:00:15.563Z,25.10
2017-12-21T03:02:49.296Z,26.63
2017-12-21T03:05:23.327Z,24.70
2017-12-21T03:07:57.068Z,27.33
2017-12-21T03:10:31.905Z,22.30
2017-12-21T03:13:05.986Z,22.37
2017-12-21T03:15:40.160Z,24.83
2017-12-21T03:18:14.162Z,27.63
2017-12-21T03:20:48.669Z,20.23
2017-12-21T03:23:22.734Z,21.47
2017-12-21T03:25:57.345Z,23.30
2017-12-21T03:28:32.967Z,24.23
2017-12-21T03:31:08.498Z,27.10
2017-12-21T03:33:42.843Z,19.00
2017-12-21T03:36:17.408Z,20.70
2017-12-21T03:38:51.731Z,22.10
2017-12-21T03:41:27.742Z,22.20
2017-12-21T03:44:03.031Z,22.50
2017-12-21T03:46:38.018Z,21.00
2017-12-21T03:49:12.301Z,20.90
2017-12-21T03:51:46.829Z,19.70
2017-12-21T03:54:20.938Z,30.13
2017-12-21T03:56:54.971Z,38.10
2017-12-21T03:59:29.544Z,19.90
2017-12-21T04:02:04.110Z,187.13
2017-12-21T04:04:38.015Z,26.30
2017-12-21T04:07:12.117Z,23.00
2017-12-21T04:09:46.155Z,15.20
2017-12-21T04:12:20.692Z,25.60
2017-12-21T04:14:55.979Z,19.23
2017-12-21T04:17:30.168Z,16.63
2017-12-21T04:20:03.921Z,14.80
2017-12-21T04:22:37.756Z,18.70
2017-12-21T04:25:11.686Z,15.20
2017-12-21T04:27:46.056Z,15.87
2017-12-21T04:30:19.902Z,16.30
2017-12-21T04:32:54.681Z,16.67
2017-12-21T04:35:29.099Z,10.97
2017-12-21T04:38:03.555Z,13.57
2017-12-21T04:40:37.322Z,12.73
2017-12-21T04:43:12.677Z,13.80
2017-12-21T04:45:47.143Z,14.20
2017-12-21T04:48:21.356Z,11.63
2017-12-21T04:50:55.421Z,11.27
2017-12-21T04:53:30.230Z,9.80
2017-12-21T04:56:04.381Z,10.80
2017-12-21T04:58:39.069Z,12.60
2017-12-21T05:01:14.193Z,11.20
2017-12-21T05:03:49.116Z,12.70
2017-12-21T05:06:23.569Z,12.50
2017-12-21T05:08:57.420Z,11.80
2017-12-21T05:11:32.310Z,12.57
2017-12-21T05:14:06.175Z,11.37
2017-12-21T05:16:40.267Z,11.00
2017-12-21T05:19:15.126Z,11.80
2017-12-21T05:21:50.501Z,10.40
2017-12-21T05:24:25.332Z,12.00
2017-12-21T05:26:59.369Z,12.27
2017-12-21T05:29:33.182Z,11.60
2017-12-21T05:32:07.114Z,8.83
2017-12-21T05:34:41.006Z,9.77
2017-12-21T05:37:14.848Z,9.50
2017-12-21T05:39:49.707Z,12.13
2017-12-21T05:42:23.726Z,10.30
2017-12-21T05:44:58.336Z,10.83
2017-12-21T05:47:32.601Z,10.57
2017-12-21T05:50:06.811Z,12.73
2017-12-21T05:52:41.130Z,15.57
2017-12-21T05:55:15.647Z,12.43
2017-12-21T05:57:49.640Z,13.03
2017-12-21T06:00:27.739Z,10.80
2017-12-21T06:03:01.625Z,11.47
2017-12-21T06:05:36.471Z,12.30
2017-12-21T06:08:10.671Z,11.10
2017-12-21T06:10:44.539Z,13.13
2017-12-21T06:13:19.256Z,12.40
2017-12-21T06:15:53.182Z,14.33
2017-12-21T06:18:27.036Z,13.30
2017-12-21T06:21:00.941Z,15.13
2017-12-21T06:23:35.061Z,16.30
2017-12-21T06:26:09.100Z,13.93
2017-12-21T06:28:43.163Z,13.53
2017-12-21T06:31:17.785Z,15.10
2017-12-21T06:33:52.925Z,18.30
2017-12-21T06:36:27.125Z,16.07
2017-12-21T06:39:01.020Z,17.10
2017-12-21T06:41:34.925Z,18.93
2017-12-21T06:44:08.963Z,15.83
2017-12-21T06:46:42.909Z,19.33
2017-12-21T06:49:16.989Z,15.10
2017-12-21T06:51:51.065Z,17.73
2017-12-21T06:54:24.918Z,17.57
2017-12-21T06:56:58.824Z,14.97
2017-12-21T06:59:33.033Z,21.20
2017-12-21T07:02:07.159Z,15.70
2017-12-21T07:04:41.226Z,17.63
2017-12-21T07:07:16.089Z,15.70
2017-12-21T07:09:50.232Z,15.23
2017-12-21T07:12:24.174Z,11.90
2017-12-21T07:14:58.262Z,11.30
2017-12-21T07:17:32.175Z,10.93
2017-12-21T07:20:07.134Z,10.37
2017-12-21T07:22:42.489Z,17.30
2017-12-21T07:25:17.586Z,14.27
2017-12-21T07:27:51.666Z,15.83
2017-12-21T07:30:25.743Z,10.70
2017-12-21T07:32:59.788Z,12.67
2017-12-21T07:35:34.496Z,11.13
2017-12-21T07:38:08.799Z,9.10
2017-12-21T07:40:42.632Z,10.80
2017-12-21T07:43:16.820Z,10.93
2017-12-21T07:45:51.359Z,10.90
2017-12-21T07:48:26.284Z,13.30
2017-12-21T07:51:00.608Z,10.00
2017-12-21T07:53:35.233Z,11.47
2017-12-21T07:56:09.335Z,9.73
2017-12-21T07:58:43.224Z,13.70
2017-12-21T08:01:17.356Z,11.53
2017-12-21T08:03:51.386Z,11.03
2017-12-21T08:06:25.080Z,10.73
2017-12-21T08:08:59.128Z,10.60
2017-12-21T08:11:33.407Z,9.17
2017-12-21T08:14:07.846Z,9.37
2017-12-21T08:16:42.141Z,9.93
2017-12-21T08:19:16.460Z,8.67
2017-12-21T08:21:50.273Z,14.40
2017-12-21T08:24:24.174Z,11.10
2017-12-21T08:26:58.702Z,9.67
2017-12-21T08:29:33.116Z,8.53
2017-12-21T08:32:07.233Z,11.10
2017-12-21T08:34:41.138Z,10.90
2017-12-21T08:37:15.828Z,13.77
2017-12-21T08:39:50.900Z,10.33
2017-12-21T08:42:24.729Z,13.10
2017-12-21T08:44:58.723Z,11.90
2017-12-21T08:47:32.761Z,10.93
2017-12-21T08:50:07.348Z,17.37
2017-12-21T08:52:40.977Z,12.70
2017-12-21T08:55:14.792Z,8.93
2017-12-21T08:57:50.000Z,8.73
2017-12-21T09:00:25.444Z,9.23
2017-12-21T09:02:59.852Z,9.90
2017-12-21T09:05:34.164Z,9.00
2017-12-21T09:08:08.124Z,8.03
2017-12-21T09:10:41.893Z,9.87
2017-12-21T09:13:16.003Z,8.57
2017-12-21T09:15:50.158Z,12.00
2017-12-21T09:18:24.943Z,7.70
2017-12-21T09:20:59.168Z,8.63
2017-12-21T09:23:34.198Z,7.30
2017-12-21T09:26:08.203Z,7.53
2017-12-21T09:28:42.358Z,6.50
2017-12-21T09:31:17.133Z,6.40
2017-12-21T09:33:52.638Z,6.30
2017-12-21T09:36:26.529Z,10.03
2017-12-21T09:39:01.503Z,9.70
2017-12-21T09:41:35.867Z,9.27
2017-12-21T09:44:10.274Z,7.60
2017-12-21T09:46:45.465Z,10.07
2017-12-21T09:49:20.028Z,8.40
2017-12-21T09:51:55.068Z,8.70
2017-12-21T09:54:28.891Z,6.50
2017-12-21T09:57:03.220Z,9.30
2017-12-21T09:59:37.920Z,11.17
2017-12-21T10:02:12.124Z,7.37
2017-12-21T10:04:46.450Z,7.40
2017-12-21T10:07:20.221Z,6.80
2017-12-21T10:09:54.198Z,5.20
2017-12-21T10:12:29.299Z,8.10
2017-12-21T10:15:04.403Z,7.87
2017-12-21T10:17:39.014Z,6.97
2017-12-21T10:20:13.639Z,9.63
2017-12-21T10:22:47.599Z,9.50
2017-12-21T10:25:21.750Z,9.70
2017-12-21T10:27:56.331Z,12.37
2017-12-21T10:30:30.471Z,10.30
2017-12-21T10:33:04.456Z,11.17
2017-12-21T10:35:38.996Z,10.37
2017-12-21T10:38:13.295Z,9.90
2017-12-21T10:40:47.540Z,9.50
2017-12-21T10:43:22.571Z,9.30
2017-12-21T10:45:56.969Z,11.20
2017-12-21T10:48:31.082Z,11.80
2017-12-21T10:51:04.855Z,10.73
2017-12-21T10:53:40.506Z,8.00
2017-12-21T10:56:14.897Z,8.13
2017-12-21T10:58:48.759Z,9.57
2017-12-21T11:01:22.884Z,9.23
2017-12-21T11:03:57.382Z,13.07
2017-12-21T11:06:32.016Z,9.83
2017-12-21T11:09:05.830Z,10.83
2017-12-21T11:11:40.066Z,6.10
2017-12-21T11:14:14.057Z,7.90
2017-12-21T11:16:47.884Z,8.33
2017-12-21T11:19:21.763Z,6.53
2017-12-21T11:21:55.906Z,7.97
2017-12-21T11:24:29.897Z,8.20
2017-12-21T11:27:04.597Z,14.83
2017-12-21T11:29:38.846Z,4.40
2017-12-21T11:32:12.862Z,3.90
2017-12-21T11:34:46.751Z,6.83
2017-12-21T11:37:22.118Z,14.50
2017-12-21T11:39:56.406Z,6.90
2017-12-21T11:42:30.625Z,10.50
2017-12-21T11:45:05.351Z,7.00
2017-12-21T11:47:40.448Z,7.13
2017-12-21T11:50:15.118Z,7.67
2017-12-21T11:52:48.934Z,6.00
2017-12-21T11:55:23.876Z,10.33
2017-12-21T11:57:58.546Z,9.70
2017-12-21T12:00:32.735Z,6.33
2017-12-21T12:03:06.645Z,6.80
2017-12-21T12:05:40.610Z,5.90
2017-12-21T12:08:14.335Z,8.00
2017-12-21T12:10:49.351Z,7.40
2017-12-21T12:13:23.255Z,5.43
2017-12-21T12:15:57.270Z,7.00
2017-12-21T12:18:31.302Z,9.30
2017-12-21T12:21:05.182Z,7.53
2017-12-21T12:23:39.197Z,9.37
2017-12-21T12:26:17.274Z,6.40
2017-12-21T12:28:51.408Z,10.70
2017-12-21T12:31:26.346Z,7.47
2017-12-21T12:34:00.486Z,8.97
2017-12-21T12:36:35.186Z,11.70
2017-12-21T12:39:09.106Z,34.37
2017-12-21T12:41:42.933Z,16.30
2017-12-21T12:44:18.035Z,12.57
2017-12-21T12:46:52.641Z,27.37
2017-12-21T12:49:26.786Z,20.40
2017-12-21T12:52:00.658Z,17.37
2017-12-21T12:54:36.986Z,13.03
2017-12-21T12:57:10.829Z,14.07
2017-12-21T12:59:44.965Z,17.77
2017-12-21T13:02:19.162Z,19.37
2017-12-21T13:04:53.170Z,15.77
2017-12-21T13:07:28.128Z,19.77
2017-12-21T13:10:03.258Z,16.93
2017-12-21T13:12:37.473Z,18.23
2017-12-21T13:15:11.280Z,25.10
2017-12-21T13:17:44.870Z,20.03
2017-12-21T13:20:18.668Z,30.40
2017-12-21T13:22:52.381Z,18.73
2017-12-21T13:25:26.398Z,17.27
2017-12-21T13:28:00.269Z,15.47
2017-12-21T13:30:34.317Z,28.50
2017-12-21T13:33:08.321Z,27.87
2017-12-21T13:35:42.506Z,25.97
2017-12-21T13:38:17.735Z,20.33
2017-12-21T13:40:52.304Z,24.57
2017-12-21T13:43:26.060Z,24.47
2017-12-21T13:46:00.546Z,32.23
2017-12-21T13:48:34.640Z,24.67
2017-12-21T13:51:08.517Z,20.50
2017-12-21T13:53:42.449Z,21.20
2017-12-21T13:56:17.082Z,20.00
2017-12-21T13:58:52.429Z,20.60
2017-12-21T14:01:26.169Z,22.83
2017-12-21T14:04:00.075Z,22.90
2017-12-21T14:06:34.043Z,17.23
2017-12-21T14:09:08.049Z,18.07
2017-12-21T14:11:42.176Z,21.90
2017-12-21T14:14:16.389Z,17.53
2017-12-21T14:16:50.986Z,20.80
2017-12-21T14:19:25.844Z,19.10
2017-12-21T14:22:00.259Z,20.73
2017-12-21T14:24:36.288Z,18.70
2017-12-21T14:27:10.834Z,22.93
2017-12-21T14:29:44.652Z,21.20
2017-12-21T14:32:18.697Z,23.60
2017-12-21T14:34:52.665Z,23.70
2017-12-21T14:37:26.715Z,20.80
2017-12-21T14:40:00.812Z,27.60
2017-12-21T14:42:35.758Z,22.63
2017-12-21T14:45:09.853Z,22.83
2017-12-21T14:47:43.742Z,23.37
2017-12-21T14:50:18.344Z,18.93
2017-12-21T14:52:53.321Z,23.37
2017-12-21T14:55:27.411Z,19.47
2017-12-21T14:58:01.810Z,27.40
2017-12-21T15:00:36.873Z,25.10
2017-12-21T15:03:10.945Z,20.73
2017-12-21T15:05:46.151Z,21.43
2017-12-21T15:08:20.501Z,22.80
2017-12-21T15:10:54.853Z,23.50
2017-12-21T15:13:28.762Z,20.13
2017-12-21T15:16:02.617Z,20.43
2017-12-21T15:18:37.464Z,22.97
2017-12-21T15:21:12.582Z,23.90
2017-12-21T15:23:47.056Z,21.10
2017-12-21T15:26:21.797Z,24.03
2017-12-21T15:28:55.512Z,23.87
2017-12-21T15:31:29.450Z,63.27
2017-12-21T15:34:04.427Z,34.23
2017-12-21T15:36:39.248Z,25.83
2017-12-21T15:39:13.329Z,38.53
2017-12-21T15:41:47.189Z,23.97
2017-12-21T15:44:21.901Z,23.93
2017-12-21T15:46:56.169Z,27.60
2017-12-21T15:49:31.355Z,25.40
2017-12-21T15:52:05.346Z,26.70
2017-12-21T15:54:39.311Z,24.10
2017-12-21T15:57:13.055Z,23.10
2017-12-21T15:59:46.959Z,23.87
2017-12-21T16:02:20.966Z,23.27
2017-12-21T16:04:55.297Z,19.47
2017-12-21T16:07:29.135Z,26.90
2017-12-21T16:10:03.238Z,23.93
2017-12-21T16:12:37.492Z,27.90
2017-12-21T16:15:11.568Z,25.20
2017-12-21T16:17:46.615Z,23.53
2017-12-21T16:20:20.508Z,25.53
2017-12-21T16:22:55.557Z,26.00
2017-12-21T16:25:30.269Z,25.60
2017-12-21T16:28:05.615Z,24.80
2017-12-21T16:30:40.506Z,27.03
2017-12-21T16:33:15.068Z,26.10
2017-12-21T16:35:49.041Z,27.77
2017-12-21T16:38:23.623Z,25.90
2017-12-21T16:40:57.703Z,27.90
2017-12-21T16:43:31.797Z,28.50
2017-12-21T16:46:05.839Z,26.97
2017-12-21T16:48:39.941Z,29.63
2017-12-21T16:51:13.726Z,30.47
2017-12-21T16:53:47.774Z,27.00
2017-12-21T16:56:21.688Z,30.33
2017-12-21T16:58:55.601Z,28.57
2017-12-21T17:01:29.404Z,28.23
2017-12-21T17:04:04.127Z,30.60
2017-12-21T17:06:38.261Z,24.77
2017-12-21T17:09:12.152Z,29.30
2017-12-21T17:11:46.065Z,27.53
2017-12-21T17:14:20.350Z,24.70
2017-12-21T17:16:54.194Z,28.43
2017-12-21T17:19:28.928Z,27.80
2017-12-21T17:22:02.837Z,24.87
2017-12-21T17:24:37.009Z,25.87
2017-12-21T17:27:10.749Z,30.00
2017-12-21T17:29:44.453Z,34.53
2017-12-21T17:32:18.758Z,30.37
2017-12-21T17:34:53.454Z,28.30
2017-12-21T17:37:27.645Z,26.47
2017-12-21T17:40:02.005Z,27.80
2017-12-21T17:42:36.513Z,28.60
2017-12-21T17:45:10.867Z,35.23
2017-12-21T17:47:44.989Z,28.60
2017-12-21T17:50:19.318Z,30.67
2017-12-21T17:52:53.617Z,35.20
2017-12-21T17:55:27.674Z,34.23
2017-12-21T17:58:02.198Z,34.43
2017-12-21T18:00:36.275Z,36.23
2017-12-21T18:03:10.337Z,40.07
2017-12-21T18:05:45.963Z,38.97
2017-12-21T18:08:20.496Z,52.43
2017-12-21T18:10:54.302Z,37.03
2017-12-21T18:13:28.677Z,40.20
2017-12-21T18:16:02.523Z,38.13
2017-12-21T18:18:37.297Z,48.47
2017-12-21T18:21:11.302Z,41.43
2017-12-21T18:23:45.415Z,38.80
2017-12-21T18:26:19.298Z,42.60
2017-12-21T18:28:58.814Z,47.23
2017-12-21T18:31:33.874Z,40.00
2017-12-21T18:34:07.432Z,43.60
2017-12-21T18:36:42.418Z,39.40
2017-12-21T18:39:16.619Z,34.30
2017-12-21T18:41:51.242Z,38.40
2017-12-21T18:44:25.565Z,45.83
2017-12-21T18:46:59.574Z,44.77
2017-12-21T18:49:34.299Z,46.53
2017-12-21T18:52:08.345Z,41.53
2017-12-21T18:54:42.293Z,42.27
2017-12-21T18:57:17.029Z,40.07
2017-12-21T18:59:50.942Z,45.47
2017-12-21T19:02:25.198Z,100.03
2017-12-21T19:04:59.890Z,38.43
2017-12-21T19:07:34.900Z,48.30
2017-12-21T19:10:09.969Z,51.27
2017-12-21T19:12:44.265Z,44.87
2017-12-21T19:15:18.196Z,46.90
2017-12-21T19:17:53.872Z,53.50
2017-12-21T19:20:29.192Z,48.30
2017-12-21T19:23:03.830Z,49.80
2017-12-21T19:25:39.098Z,48.73
2017-12-21T19:28:13.472Z,67.73
2017-12-21T19:30:48.110Z,55.33
2017-12-21T19:33:23.105Z,52.93
2017-12-21T19:35:57.124Z,46.10
2017-12-21T19:38:31.778Z,54.80
2017-12-21T19:41:06.068Z,51.50
2017-12-21T19:43:40.702Z,59.87
2017-12-21T19:46:14.874Z,51.43
2017-12-21T19:48:48.802Z,53.40
2017-12-21T19:51:24.244Z,48.90
2017-12-21T19:53:58.588Z,51.73
2017-12-21T19:56:32.495Z,47.37
2017-12-21T19:59:06.445Z,52.70
2017-12-21T20:01:41.336Z,51.37
2017-12-21T20:04:15.290Z,49.97
2017-12-21T20:06:49.765Z,47.90
2017-12-21T20:09:23.562Z,50.17
2017-12-21T20:11:58.321Z,44.50
2017-12-21T20:14:32.046Z,55.10
2017-12-21T20:17:06.752Z,51.67
2017-12-21T20:19:40.913Z,55.33
2017-12-21T20:22:15.805Z,56.37
2017-12-21T20:24:50.091Z,56.77
2017-12-21T20:27:24.738Z,50.57
2017-12-21T20:30:00.029Z,50.50
2017-12-21T20:32:33.821Z,49.47
2017-12-21T20:35:07.685Z,53.00
2017-12-21T20:37:41.576Z,48.67
2017-12-21T20:40:15.483Z,56.10
2017-12-21T20:42:49.585Z,48.63
2017-12-21T20:45:24.381Z,53.43
2017-12-21T20:47:58.577Z,51.63
2017-12-21T20:50:33.776Z,49.87
2017-12-21T20:53:08.108Z,54.20
2017-12-21T20:55:42.220Z,53.87
2017-12-21T20:58:16.054Z,50.20
2017-12-21T21:00:49.769Z,51.80
2017-12-21T21:03:24.448Z,50.50
2017-12-21T21:05:58.571Z,63.07
2017-12-21T21:08:32.536Z,54.97
2017-12-21T21:11:07.178Z,55.20
2017-12-21T21:13:41.484Z,56.10
2017-12-21T21:16:15.875Z,57.63
2017-12-21T21:18:50.458Z,56.43
2017-12-21T21:21:25.921Z,52.63
2017-12-21T21:24:00.289Z,54.07
2017-12-21T21:26:34.595Z,63.63
2017-12-21T21:29:08.418Z,52.80
2017-12-21T21:31:42.455Z,59.23
2017-12-21T21:34:16.404Z,55.03
2017-12-21T21:36:50.634Z,50.90
2017-12-21T21:39:24.604Z,57.23
2017-12-21T21:41:58.550Z,61.50
2017-12-21T21:44:32.615Z,55.00
2017-12-21T21:47:06.524Z,69.83
2017-12-21T21:49:40.538Z,63.73
2017-12-21T21:52:15.136Z,64.50
2017-12-21T21:54:50.305Z,65.97
2017-12-21T21:57:24.323Z,59.73
2017-12-21T21:59:59.013Z,61.33
2017-12-21T22:02:33.425Z,61.80
2017-12-21T22:05:07.344Z,57.83
2017-12-21T22:07:41.837Z,55.60
2017-12-21T22:10:16.720Z,59.70
2017-12-21T22:12:50.852Z,56.20
2017-12-21T22:15:25.550Z,58.43
2017-12-21T22:18:00.538Z,61.17
2017-12-21T22:20:35.021Z,55.67
2017-12-21T22:23:08.837Z,54.20
2017-12-21T22:25:43.526Z,63.80
2017-12-21T22:28:17.827Z,54.00
2017-12-21T22:30:52.440Z,58.47
2017-12-21T22:33:26.984Z,57.33
2017-12-21T22:36:02.106Z,54.43
2017-12-21T22:38:36.475Z,51.33
2017-12-21T22:41:10.445Z,52.23
2017-12-21T22:43:45.180Z,60.77
2017-12-21T22:46:19.590Z,58.50
2017-12-21T22:48:53.593Z,57.87
2017-12-21T22:51:27.730Z,57.03
2017-12-21T22:54:02.353Z,61.13
2017-12-21T22:56:37.154Z,56.83
2017-12-21T22:59:11.242Z,61.40
2017-12-21T23:01:45.179Z,53.67
2017-12-21T23:04:19.022Z,57.70
2017-12-21T23:06:52.812Z,55.70
2017-12-21T23:09:27.535Z,55.43
2017-12-21T23:12:02.358Z,54.87
2017-12-21T23:14:36.627Z,60.37
2017-12-21T23:17:10.580Z,63.13
2017-12-21T23:19:44.585Z,60.20
2017-12-21T23:22:18.673Z,56.10
2017-12-21T23:24:52.517Z,61.93
2017-12-21T23:27:27.340Z,60.70
2017-12-21T23:30:01.391Z,61.60
2017-12-21T23:32:35.326Z,58.33
2017-12-21T23:35:09.165Z,59.00
2017-12-21T23:37:44.210Z,62.47
2017-12-21T23:40:18.528Z,65.53
2017-12-21T23:42:52.846Z,61.40
2017-12-21T23:45:26.811Z,57.07
2017-12-21T23:48:00.795Z,60.83
2017-12-21T23:50:34.875Z,60.40
2017-12-21T23:53:09.020Z,59.30
2017-12-21T23:55:43.512Z,74.03
2017-12-21T23:58:17.665Z,61.50
